Terminal Aerodrome Forecast
Issued by NWS Omaha/Valley, NE

Home | Current Version | Previous Version | Text Only | Print | Product List | Glossary On
Versions: 1 2 3 4 5 6 7 8 9 10 11 12 13 14 15 16 17 18 19 20 21 22 23
000
FTUS43 KOAX 261725 AAA
TAFOFK
TAF AMD
KOFK 261725Z 2617/2718 33011KT P6SM BKN020
     FM262000 33009KT P6SM SCT030 BKN250
     FM270100 VRB03KT P6SM SCT250
      TEMPO 2710/2713 4SM BR=

USA.gov is the U.S. government's official web portal to all federal, state and local government web resources and services.